Time;durP1;ratioP1;P1;durP2;ratioP2;P2;SDS_P1;SDS_P2;PMS_P1;PMS_P2;Temp;Humidity;BMP_temperature;BMP_pressure;BME280_temperature;BME280_humidity;BME280_pressure;Samples;Min_cycle;Max_cycle;Signal;HPM_P1;HPM_P2
2023/09/16 00:02:20;;;;;;;11.20;3.00;;;;;;;14.87;51.60;99583.69;67839;1277;1016219;-65
2023/09/16 00:05:23;;;;;;;7.80;2.60;;;;;;;14.81;51.77;99584.63;67856;1277;1016404;-65
2023/09/16 00:08:25;;;;;;;3.90;1.40;;;;;;;14.87;51.85;99583.83;67842;1278;1016463;-64
2023/09/16 00:11:29;;;;;;;2.50;1.50;;;;;;;14.89;51.83;99583.02;67865;1277;1016489;-70
2023/09/16 00:14:31;;;;;;;8.40;2.20;;;;;;;14.77;51.71;99582.78;67812;1278;1016226;-69
2023/09/16 00:17:34;;;;;;;4.50;1.60;;;;;;;14.63;51.55;99584.76;67820;1277;1016529;-67
2023/09/16 00:20:36;;;;;;;7.60;2.40;;;;;;;14.58;51.85;99581.34;67805;1277;1016471;-70
2023/09/16 00:23:38;;;;;;;9.50;2.80;;;;;;;14.61;51.84;99579.38;67830;1277;1017357;-68
2023/09/16 00:26:41;;;;;;;9.60;2.70;;;;;;;14.66;51.97;99583.13;67816;1277;1016493;-66
2023/09/16 00:29:43;;;;;;;13.90;3.70;;;;;;;14.74;51.67;99579.79;67814;1277;1016566;-67
2023/09/16 00:32:45;;;;;;;7.40;2.70;;;;;;;14.71;51.34;99574.90;67843;1277;1016420;-66
2023/09/16 00:35:48;;;;;;;13.20;3.10;;;;;;;14.63;51.31;99575.80;67835;1277;1016493;-64
2023/09/16 00:38:50;;;;;;;14.20;3.70;;;;;;;14.58;51.52;99571.29;67805;1277;1016703;-69
2023/09/16 00:41:53;;;;;;;16.90;4.00;;;;;;;14.53;51.62;99569.13;67803;1277;1016389;-64
2023/09/16 00:44:55;;;;;;;17.00;4.10;;;;;;;14.55;51.70;99570.60;67824;1277;1017257;-68
2023/09/16 00:47:59;;;;;;;15.90;3.90;;;;;;;14.59;51.60;99568.77;67879;1277;1017044;-66
2023/09/16 00:51:02;;;;;;;12.70;3.30;;;;;;;14.59;51.26;99573.52;67845;1277;1016401;-63
2023/09/16 00:54:05;;;;;;;14.50;4.20;;;;;;;14.57;51.29;99569.63;67820;1277;1016433;-70
2023/09/16 00:57:08;;;;;;;16.20;4.10;;;;;;;14.55;51.27;99569.92;67855;1277;1016390;-68
2023/09/16 01:00:11;;;;;;;13.80;3.60;;;;;;;14.54;51.52;99567.53;67847;1277;1016349;-65
2023/09/16 01:03:13;;;;;;;12.60;3.90;;;;;;;14.54;51.79;99568.96;67827;1278;1016356;-69
2023/09/16 01:06:17;;;;;;;12.30;3.40;;;;;;;14.54;51.91;99569.96;67805;1278;1016416;-63
2023/09/16 01:09:20;;;;;;;12.00;3.10;;;;;;;14.65;51.58;99567.02;67834;1277;1016424;-65
2023/09/16 01:12:23;;;;;;;10.00;2.60;;;;;;;14.65;51.57;99568.09;67780;1277;1016379;-69
2023/09/16 01:15:27;;;;;;;6.60;1.90;;;;;;;14.86;51.25;99563.88;67855;1277;1016171;-64
2023/09/16 01:18:29;;;;;;;9.20;2.50;;;;;;;14.89;50.88;99560.11;67837;1278;1016458;-72
2023/09/16 01:21:32;;;;;;;6.20;2.10;;;;;;;14.84;50.87;99557.34;67868;1277;1016430;-72
2023/09/16 01:24:34;;;;;;;5.80;2.10;;;;;;;14.75;50.99;99553.16;67838;1278;1016387;-67
2023/09/16 01:27:37;;;;;;;8.30;2.20;;;;;;;14.51;51.65;99553.61;67811;1277;1016428;-68
2023/09/16 01:30:40;;;;;;;5.50;2.00;;;;;;;14.37;51.82;99551.02;67839;1277;1016368;-67
2023/09/16 01:33:42;;;;;;;8.50;2.10;;;;;;;14.33;51.89;99553.20;67851;1277;1019544;-68
2023/09/16 01:36:45;;;;;;;6.90;2.40;;;;;;;14.39;52.03;99556.87;67843;1277;1016824;-67
2023/09/16 01:39:47;;;;;;;8.00;2.70;;;;;;;14.21;52.54;99554.18;67816;1277;1016372;-65
2023/09/16 01:42:49;;;;;;;4.90;1.70;;;;;;;14.34;52.20;99553.14;67802;1277;1016425;-69
2023/09/16 01:45:52;;;;;;;9.20;2.60;;;;;;;14.36;51.84;99549.14;67856;1277;1016413;-65
2023/09/16 01:48:54;;;;;;;8.40;2.50;;;;;;;14.28;52.22;99546.14;67846;1277;1016484;-65
2023/09/16 01:51:56;;;;;;;8.90;2.40;;;;;;;14.23;52.39;99543.65;67871;1277;1016293;-67
2023/09/16 01:54:59;;;;;;;2.10;1.40;;;;;;;14.07;52.43;99538.20;67829;1277;1016296;-65
2023/09/16 01:58:01;;;;;;;6.40;2.20;;;;;;;13.92;52.77;99538.96;67809;1277;1016786;-68
2023/09/16 02:01:08;;;;;;;;;;;;;;;13.95;52.20;99538.25;67879;1277;1016449;-69
2023/09/16 02:04:10;;;;;;;1.70;1.10;;;;;;;13.88;52.11;99537.61;67845;1277;1016780;-67
2023/09/16 02:07:12;;;;;;;2.10;1.10;;;;;;;13.95;51.99;99539.63;67847;1277;1016439;-69
2023/09/16 02:10:16;;;;;;;3.50;1.30;;;;;;;13.98;51.86;99536.62;67829;1277;1016140;-70
2023/09/16 02:13:18;;;;;;;2.50;1.10;;;;;;;13.94;51.66;99534.95;67881;1277;1016520;-68
2023/09/16 02:16:20;;;;;;;5.20;2.30;;;;;;;13.92;51.95;99530.55;67850;1277;1016895;-68
2023/09/16 02:19:23;;;;;;;5.70;1.80;;;;;;;13.98;52.40;99532.27;67824;1277;1016396;-64
2023/09/16 02:22:26;;;;;;;6.40;1.90;;;;;;;14.00;52.32;99533.71;67836;1277;1016151;-67
2023/09/16 02:25:28;;;;;;;6.30;2.00;;;;;;;13.97;52.46;99528.95;67849;1277;1018084;-67
2023/09/16 02:28:31;;;;;;;3.80;1.70;;;;;;;13.92;52.43;99533.16;67877;1277;1018510;-68
2023/09/16 02:31:33;;;;;;;8.30;2.70;;;;;;;13.79;52.80;99538.52;67881;1277;1016501;-70
2023/09/16 02:34:36;;;;;;;5.70;1.70;;;;;;;13.84;52.69;99534.54;67792;1277;1018902;-70
2023/09/16 02:37:38;;;;;;;1.80;0.70;;;;;;;13.87;52.51;99529.98;67822;1277;1016234;-70
2023/09/16 02:40:41;;;;;;;11.70;3.10;;;;;;;13.81;52.57;99531.21;67818;1277;1016410;-68
2023/09/16 02:43:43;;;;;;;7.30;1.90;;;;;;;13.82;52.64;99531.52;67840;1277;1016096;-67
2023/09/16 02:46:45;;;;;;;4.40;1.30;;;;;;;13.92;52.17;99534.77;67778;1277;1016513;-69
2023/09/16 02:49:48;;;;;;;11.90;3.10;;;;;;;13.73;52.61;99539.45;67814;1277;1016451;-67
2023/09/16 02:52:50;;;;;;;11.60;3.30;;;;;;;13.58;53.61;99544.08;67827;1277;1016226;-67
2023/09/16 02:55:53;;;;;;;8.40;2.50;;;;;;;13.58;53.60;99539.14;67857;1277;1016809;-68
2023/09/16 02:58:55;;;;;;;11.50;3.20;;;;;;;13.45;53.53;99538.52;67863;1277;1016485;-67
2023/09/16 03:01:57;;;;;;;15.20;3.40;;;;;;;13.42;53.43;99539.59;67856;1277;1016449;-65
2023/09/16 03:05:00;;;;;;;12.90;3.10;;;;;;;13.57;53.16;99536.24;67825;1277;1018756;-65
2023/09/16 03:08:02;;;;;;;11.90;3.10;;;;;;;13.66;52.47;99529.70;67808;1277;1017283;-70
2023/09/16 03:11:05;;;;;;;15.20;3.50;;;;;;;13.53;52.58;99532.61;67833;1277;1016151;-70
2023/09/16 03:14:07;;;;;;;13.60;3.50;;;;;;;13.45;52.97;99531.37;67869;1277;1016446;-71
2023/09/16 03:17:09;;;;;;;15.10;3.70;;;;;;;13.64;52.96;99528.05;67873;1277;1015961;-70
2023/09/16 03:20:12;;;;;;;15.80;4.00;;;;;;;13.60;53.23;99530.58;67818;1277;1016399;-69
2023/09/16 03:23:14;;;;;;;14.90;3.80;;;;;;;13.70;52.93;99525.38;67807;1277;1016448;-64
2023/09/16 03:26:17;;;;;;;15.80;3.90;;;;;;;13.70;52.66;99523.08;67797;1277;1016471;-64
2023/09/16 03:29:19;;;;;;;17.70;3.80;;;;;;;13.57;52.41;99523.54;67839;1277;1016385;-65
2023/09/16 03:32:27;;;;;;;16.20;3.20;;;;;;;13.40;52.51;99523.72;67767;1277;1017165;-66
2023/09/16 03:35:30;;;;;;;19.50;4.00;;;;;;;13.23;53.05;99522.25;67849;1277;1016139;-65
2023/09/16 03:38:32;;;;;;;12.90;3.00;;;;;;;13.16;53.36;99522.16;67785;1277;1016319;-63
2023/09/16 03:41:35;;;;;;;14.50;3.80;;;;;;;13.35;52.93;99516.82;67792;1277;1016011;-65
2023/09/16 03:44:38;;;;;;;16.10;3.50;;;;;;;13.42;52.56;99519.55;67840;1277;1017102;-64
2023/09/16 03:47:40;;;;;;;12.30;3.20;;;;;;;13.40;52.98;99521.30;67784;1277;1016422;-65
2023/09/16 03:50:42;;;;;;;15.50;3.40;;;;;;;13.46;52.91;99516.52;67818;1277;1016245;-64
2023/09/16 03:53:45;;;;;;;15.20;3.50;;;;;;;13.44;53.13;99518.73;67839;1277;1016474;-66
2023/09/16 03:56:47;;;;;;;16.10;3.70;;;;;;;13.38;53.33;99513.11;67826;1277;1017068;-64
2023/09/16 03:59:50;;;;;;;10.80;2.90;;;;;;;13.28;53.33;99516.36;67853;1277;1016505;-62
2023/09/16 04:02:52;;;;;;;4.40;1.70;;;;;;;13.13;52.84;99526.02;67826;1277;1016459;-64
2023/09/16 04:05:58;;;;;;;10.80;3.20;;;;;;;13.15;52.54;99530.64;67788;1277;1016283;-65
2023/09/16 04:09:00;;;;;;;14.90;3.80;;;;;;;13.20;52.94;99532.48;67799;1277;1016370;-64
2023/09/16 04:12:03;;;;;;;17.00;3.80;;;;;;;13.26;52.87;99535.83;67809;1277;1018944;-66
2023/09/16 04:15:06;;;;;;;21.20;4.80;;;;;;;13.21;53.32;99534.67;67817;1277;1016429;-63
2023/09/16 04:18:08;;;;;;;16.90;3.70;;;;;;;13.25;53.24;99530.02;67826;1277;1018022;-68
2023/09/16 04:21:11;;;;;;;19.00;4.80;;;;;;;13.26;53.14;99528.95;67821;1277;1016461;-69
2023/09/16 04:24:13;;;;;;;19.30;4.10;;;;;;;13.27;53.30;99533.09;67859;1277;1016406;-66
2023/09/16 04:27:15;;;;;;;12.30;3.20;;;;;;;13.26;52.98;99532.95;67858;1277;1016424;-64
2023/09/16 04:30:19;;;;;;;10.80;2.60;;;;;;;13.20;52.57;99530.73;67818;1277;1018839;-65
2023/09/16 04:33:22;;;;;;;9.00;2.50;;;;;;;13.12;51.92;99529.98;67851;1277;1016535;-63
2023/09/16 04:36:24;;;;;;;8.20;2.60;;;;;;;13.10;52.69;99520.95;67834;1277;1016438;-64
2023/09/16 04:39:27;;;;;;;12.90;3.20;;;;;;;13.21;52.78;99522.72;67824;1277;1016901;-67
2023/09/16 04:42:30;;;;;;;10.40;2.80;;;;;;;13.31;52.63;99527.23;67877;1277;1016280;-68
2023/09/16 04:45:32;;;;;;;15.50;2.90;;;;;;;13.37;52.21;99528.30;67808;1277;1016363;-65
2023/09/16 04:48:36;;;;;;;19.90;4.10;;;;;;;13.43;52.52;99524.96;67826;1277;1016438;-63
2023/09/16 04:51:38;;;;;;;13.50;3.50;;;;;;;13.57;52.28;99527.97;67837;1277;1016413;-70
2023/09/16 04:54:41;;;;;;;16.70;4.20;;;;;;;13.68;52.25;99529.89;67815;1277;1016236;-70
2023/09/16 04:57:44;;;;;;;;;;;;;;;13.83;52.21;99528.97;67873;1277;1016339;-70
2023/09/16 05:00:48;;;;;;;5.60;2.10;;;;;;;13.97;51.71;99526.86;67789;1277;1016370;-69
2023/09/16 05:03:51;;;;;;;11.60;3.00;;;;;;;14.20;51.98;99530.70;67821;1277;1016409;-64
2023/09/16 05:06:53;;;;;;;17.00;4.40;;;;;;;14.42;52.12;99530.66;67845;1277;1018656;-65
2023/09/16 05:09:56;;;;;;;17.70;4.40;;;;;;;14.63;52.04;99533.02;67861;1277;1016475;-66
2023/09/16 05:12:58;;;;;;;16.30;4.00;;;;;;;14.75;51.83;99540.48;67816;1277;1016587;-63
2023/09/16 05:16:01;;;;;;;20.20;4.70;;;;;;;14.90;51.96;99542.11;67831;1254;1016366;-64
2023/09/16 05:19:03;;;;;;;;;;;;;;;15.16;52.26;99545.98;67856;1277;1016389;-65
2023/09/16 05:22:06;;;;;;;15.20;3.80;;;;;;;15.34;52.27;99541.42;67865;1277;1016426;-65
2023/09/16 05:25:08;;;;;;;18.70;4.20;;;;;;;15.52;52.25;99542.96;67822;1277;1016659;-65
2023/09/16 05:28:10;;;;;;;14.80;4.10;;;;;;;15.62;52.52;99541.80;67830;1277;1016284;-62
2023/09/16 05:31:13;;;;;;;16.80;4.00;;;;;;;15.78;52.50;99537.64;67814;1277;1016500;-63
2023/09/16 05:34:15;;;;;;;17.70;4.00;;;;;;;15.99;52.55;99535.44;67832;1277;1016411;-63
2023/09/16 05:37:18;;;;;;;19.30;4.40;;;;;;;16.30;52.77;99532.89;67858;1277;1016803;-65
2023/09/16 05:40:20;;;;;;;17.80;4.60;;;;;;;16.57;52.93;99529.99;67876;1277;1016357;-64
2023/09/16 05:43:23;;;;;;;19.20;4.50;;;;;;;16.90;52.67;99526.80;67818;1277;1016478;-65
2023/09/16 05:46:25;;;;;;;16.90;4.60;;;;;;;17.27;52.81;99525.45;67810;1277;1016387;-62
2023/09/16 05:49:27;;;;;;;14.40;3.80;;;;;;;17.66;52.76;99523.83;67876;1277;1016432;-64
2023/09/16 05:52:30;;;;;;;14.40;4.40;;;;;;;18.03;52.79;99522.24;67868;1277;1016041;-63
2023/09/16 05:55:36;;;;;;;18.40;4.80;;;;;;;18.30;52.89;99517.13;67831;1277;1016975;-64
2023/09/16 05:58:39;;;;;;;16.90;4.40;;;;;;;18.67;53.08;99517.74;67826;1277;1016503;-68
2023/09/16 06:01:42;;;;;;;17.40;4.50;;;;;;;19.11;52.77;99514.60;67862;1277;1016040;-70
2023/09/16 06:04:44;;;;;;;17.30;4.30;;;;;;;19.44;52.56;99514.48;67867;1277;1016350;-69
2023/09/16 06:07:46;;;;;;;17.40;4.40;;;;;;;19.77;52.64;99513.90;67818;1277;1016325;-70
2023/09/16 06:10:49;;;;;;;17.90;4.60;;;;;;;20.01;52.67;99509.64;67818;1277;1015798;-66
2023/09/16 06:13:52;;;;;;;16.80;4.50;;;;;;;20.30;52.60;99502.27;67865;1277;1016413;-69
2023/09/16 06:16:54;;;;;;;17.50;4.20;;;;;;;20.61;52.29;99498.27;67845;1277;1016323;-64
2023/09/16 06:19:56;;;;;;;15.50;4.30;;;;;;;20.81;52.51;99495.52;67828;1277;1016439;-65
2023/09/16 06:23:02;;;;;;;14.30;4.00;;;;;;;21.07;52.53;99496.79;67801;1277;1016812;-66
2023/09/16 06:26:06;;;;;;;16.20;3.80;;;;;;;21.27;52.41;99498.89;67860;1277;1016394;-65
2023/09/16 06:29:08;;;;;;;19.20;4.40;;;;;;;21.60;52.37;99500.69;67856;1277;1016508;-64
2023/09/16 06:32:10;;;;;;;17.30;3.90;;;;;;;22.03;51.91;99497.63;67838;1277;1016249;-69
2023/09/16 06:35:13;;;;;;;;;;;;;;;22.30;51.27;99499.56;67837;1277;1016606;-67
2023/09/16 06:38:15;;;;;;;17.20;4.70;;;;;;;22.44;51.36;99499.80;67821;1277;1016293;-67
2023/09/16 06:41:17;;;;;;;;;;;;;;;22.49;51.14;99497.92;67866;1277;1016434;-69
2023/09/16 06:44:20;;;;;;;15.10;4.40;;;;;;;22.51;51.37;99499.31;67849;1277;1018445;-65
2023/09/16 06:47:24;;;;;;;17.30;4.70;;;;;;;22.63;51.31;99498.27;67861;1277;1017851;-68
2023/09/16 06:50:26;;;;;;;16.60;4.60;;;;;;;22.81;50.78;99497.23;67834;1277;1016109;-65
2023/09/16 06:53:29;;;;;;;;;;;;;;;22.92;50.44;99499.45;67808;1277;1017396;-64
2023/09/16 06:56:31;;;;;;;16.10;4.70;;;;;;;23.09;49.77;99499.21;67825;1277;1016111;-65
2023/09/16 06:59:34;;;;;;;;;;;;;;;23.16;50.15;99501.47;67865;1277;1016459;-69
2023/09/16 07:02:36;;;;;;;15.90;4.90;;;;;;;23.33;50.06;99500.71;67886;1277;1016277;-69
2023/09/16 07:05:39;;;;;;;;;;;;;;;23.73;49.19;99503.14;67839;1277;1016403;-68
2023/09/16 07:08:41;;;;;;;22.30;5.70;;;;;;;23.72;48.47;99505.52;67829;1277;1016406;-69
2023/09/16 07:11:43;;;;;;;;;;;;;;;23.84;48.05;99504.42;67826;1277;1017254;-69
2023/09/16 07:14:46;;;;;;;23.20;5.50;;;;;;;23.84;47.61;99505.02;67822;1277;1016342;-67
2023/09/16 07:17:48;;;;;;;;;;;;;;;23.78;48.00;99506.14;67833;1277;1016423;-67
2023/09/16 07:20:51;;;;;;;19.10;5.30;;;;;;;23.97;48.26;99509.58;67842;1277;1018212;-67
2023/09/16 07:23:53;;;;;;;;;;;;;;;24.28;47.73;99507.95;67846;1277;1017258;-67
2023/09/16 07:26:55;;;;;;;21.60;5.90;;;;;;;24.46;47.30;99512.86;67817;1277;1016213;-65
2023/09/16 07:29:58;;;;;;;20.40;5.80;;;;;;;24.71;47.41;99504.71;67848;1277;1016484;-67
2023/09/16 07:33:00;;;;;;;24.40;5.40;;;;;;;24.95;46.55;99507.04;67828;1277;1016670;-64
2023/09/16 07:36:21;;;;;;;23.80;5.90;;;;;;;24.90;46.42;99505.48;67851;1277;1016378;-67
2023/09/16 07:39:24;;;;;;;20.50;6.00;;;;;;;24.87;46.03;99508.30;67824;1277;1016455;-69
2023/09/16 07:42:26;;;;;;;21.60;6.00;;;;;;;25.01;46.48;99512.13;67847;1277;1016166;-67
2023/09/16 07:45:28;;;;;;;22.30;6.20;;;;;;;25.11;45.83;99510.80;67851;1277;1020085;-65
2023/09/16 07:48:32;;;;;;;19.50;5.60;;;;;;;25.15;45.72;99511.23;67850;1277;1018172;-67
2023/09/16 07:51:34;;;;;;;19.60;5.90;;;;;;;25.30;45.76;99512.08;67856;1277;1016053;-67
2023/09/16 07:54:37;;;;;;;21.90;6.30;;;;;;;25.68;45.74;99509.67;67863;1277;1016360;-64
2023/09/16 07:57:39;;;;;;;19.70;5.70;;;;;;;25.94;44.55;99500.03;67817;1277;1016379;-65
2023/09/16 08:00:41;;;;;;;19.20;6.10;;;;;;;26.09;44.87;99498.39;67810;1277;1016266;-65
2023/09/16 08:03:44;;;;;;;19.60;5.50;;;;;;;26.43;44.98;99492.11;67822;1277;1018805;-64
2023/09/16 08:06:49;;;;;;;22.50;6.20;;;;;;;26.55;44.41;99496.00;67869;1277;1016743;-65
2023/09/16 08:09:52;;;;;;;24.10;5.90;;;;;;;26.68;43.27;99493.62;67805;1277;1015947;-73
2023/09/16 08:12:54;;;;;;;24.80;6.00;;;;;;;26.66;43.28;99493.13;67818;1277;1016402;-69
2023/09/16 08:15:56;;;;;;;23.40;6.00;;;;;;;26.53;42.75;99488.23;67820;1277;1016511;-71
2023/09/16 08:18:59;;;;;;;18.10;5.90;;;;;;;26.65;43.45;99484.29;67870;1277;1016210;-65
2023/09/16 08:22:01;;;;;;;18.40;5.90;;;;;;;27.03;43.07;99486.89;67833;1277;1016475;-64
2023/09/16 08:25:04;;;;;;;16.00;5.30;;;;;;;27.07;42.74;99490.55;67822;1277;1016960;-69
2023/09/16 08:28:08;;;;;;;21.20;5.80;;;;;;;27.17;42.16;99492.14;67814;1277;1016424;-65
2023/09/16 08:31:11;;;;;;;20.40;5.50;;;;;;;27.20;41.86;99488.70;67824;1277;1016112;-67
2023/09/16 08:34:13;;;;;;;19.10;5.70;;;;;;;27.26;41.93;99488.75;67730;1277;1016420;-68
2023/09/16 08:37:16;;;;;;;19.40;6.00;;;;;;;27.47;42.22;99488.84;67781;1277;1016400;-66
2023/09/16 08:40:18;;;;;;;18.90;6.00;;;;;;;27.70;42.19;99489.14;67807;1277;1016924;-64
2023/09/16 08:43:20;;;;;;;19.80;5.50;;;;;;;27.85;41.63;99481.67;67826;1277;1016442;-67
2023/09/16 08:46:23;;;;;;;20.00;5.40;;;;;;;27.95;41.22;99480.36;67802;1277;1016367;-65
2023/09/16 08:49:25;;;;;;;17.80;5.30;;;;;;;28.14;41.48;99482.39;67856;1277;1016423;-66
2023/09/16 08:52:28;;;;;;;18.80;5.50;;;;;;;28.41;41.05;99477.63;67829;1277;1016602;-69
2023/09/16 08:55:32;;;;;;;17.00;5.40;;;;;;;28.46;40.77;99481.79;67797;1277;1016343;-67
2023/09/16 08:58:35;;;;;;;19.60;6.20;;;;;;;28.47;40.88;99484.53;67818;1277;1016609;-67
2023/09/16 09:01:37;;;;;;;18.10;6.00;;;;;;;28.44;40.55;99488.83;67852;1277;1016436;-67
2023/09/16 09:04:40;;;;;;;19.20;6.10;;;;;;;28.66;40.68;99483.06;67831;1277;1016566;-67
2023/09/16 09:07:42;;;;;;;20.20;5.70;;;;;;;28.78;40.38;99482.61;67809;1277;1016447;-65
2023/09/16 09:10:45;;;;;;;18.10;5.70;;;;;;;29.06;39.96;99478.11;67700;1277;1015658;-66
2023/09/16 09:13:47;;;;;;;18.70;6.30;;;;;;;29.22;39.76;99474.69;67822;1277;1016288;-67
2023/09/16 09:16:49;;;;;;;22.30;6.50;;;;;;;29.24;39.26;99481.23;67846;1277;1016986;-65
2023/09/16 09:19:52;;;;;;;21.00;6.10;;;;;;;29.44;39.02;99478.00;67762;1277;1016470;-66
2023/09/16 09:22:54;;;;;;;20.20;5.80;;;;;;;29.59;38.80;99478.67;67666;1277;1016487;-64
2023/09/16 09:25:57;;;;;;;19.80;5.80;;;;;;;29.72;38.69;99476.88;67699;1277;1016354;-66
2023/09/16 09:29:00;;;;;;;18.60;5.60;;;;;;;29.72;39.01;99469.81;67759;1277;1016383;-66
2023/09/16 09:32:05;;;;;;;17.80;5.50;;;;;;;29.76;39.30;99470.58;67726;1277;1016232;-66
2023/09/16 09:35:08;;;;;;;17.70;5.70;;;;;;;29.91;38.62;99465.02;67794;1277;1016372;-65
2023/09/16 09:38:11;;;;;;;16.60;5.20;;;;;;;30.20;38.42;99461.64;67838;1277;1016212;-67
2023/09/16 09:41:13;;;;;;;16.70;5.20;;;;;;;30.33;38.38;99458.56;67832;1277;1016807;-67
2023/09/16 09:44:15;;;;;;;17.40;5.10;;;;;;;30.55;38.16;99456.30;67795;1277;1016548;-65
2023/09/16 09:47:18;;;;;;;17.00;5.30;;;;;;;30.73;37.73;99459.04;67837;1277;1016714;-66
2023/09/16 09:50:20;;;;;;;15.60;5.10;;;;;;;30.82;37.13;99455.37;67848;1277;1016091;-67
2023/09/16 09:53:23;;;;;;;16.60;5.20;;;;;;;30.75;37.18;99456.13;67836;1277;1016461;-67
2023/09/16 09:56:25;;;;;;;18.90;5.00;;;;;;;30.77;36.90;99456.91;67812;1277;1016394;-66
2023/09/16 09:59:28;;;;;;;15.70;5.00;;;;;;;30.68;37.02;99452.95;67830;1277;1017633;-66
2023/09/16 10:02:30;;;;;;;15.80;5.40;;;;;;;30.86;36.97;99449.31;67848;1277;1016515;-66
2023/09/16 10:05:33;;;;;;;19.10;5.40;;;;;;;30.74;36.23;99447.46;67866;1277;1016444;-67
2023/09/16 10:08:36;;;;;;;18.70;5.40;;;;;;;30.77;36.20;99444.17;67825;1277;1016386;-65
2023/09/16 10:11:38;;;;;;;16.50;5.30;;;;;;;30.76;37.04;99439.02;67834;1277;1016237;-65
2023/09/16 10:14:41;;;;;;;16.90;5.30;;;;;;;31.12;36.34;99438.73;67876;1277;1016476;-65
2023/09/16 10:17:43;;;;;;;16.70;5.00;;;;;;;31.10;36.00;99437.17;67836;1277;1016644;-66
2023/09/16 10:20:46;;;;;;;14.30;4.80;;;;;;;30.89;35.79;99435.48;67829;1277;1016404;-66
2023/09/16 10:23:48;;;;;;;15.00;4.90;;;;;;;30.82;36.21;99437.83;67804;1277;1016329;-67
2023/09/16 10:26:50;;;;;;;16.30;5.20;;;;;;;30.93;35.59;99432.69;67842;1277;1016435;-65
2023/09/16 10:29:53;;;;;;;15.90;5.20;;;;;;;30.96;35.89;99434.14;67868;1277;1016307;-66
2023/09/16 10:32:55;;;;;;;17.90;5.30;;;;;;;31.09;36.17;99439.43;67841;1277;1016017;-66
2023/09/16 10:35:58;;;;;;;18.00;5.50;;;;;;;31.22;36.63;99437.46;67847;1277;1016511;-67
2023/09/16 10:39:01;;;;;;;16.40;5.30;;;;;;;31.42;36.39;99439.18;67872;1277;1016710;-66
2023/09/16 10:42:03;;;;;;;16.70;5.20;;;;;;;31.43;35.39;99439.43;67846;1277;1016369;-65
2023/09/16 10:45:10;;;;;;;17.50;5.00;;;;;;;31.42;35.60;99441.19;67872;1277;1016331;-65
2023/09/16 10:48:12;;;;;;;17.30;5.30;;;;;;;31.60;35.69;99435.85;67840;1277;1016174;-65
2023/09/16 10:51:15;;;;;;;16.10;5.20;;;;;;;31.71;35.17;99431.73;67805;1277;1016462;-65
2023/09/16 10:54:18;;;;;;;18.20;5.30;;;;;;;32.09;35.58;99428.45;67862;1277;1016243;-65
2023/09/16 10:57:20;;;;;;;18.50;5.40;;;;;;;32.38;35.36;99424.78;67789;1277;1016485;-64
2023/09/16 11:00:23;;;;;;;17.00;5.20;;;;;;;32.58;35.09;99423.80;67827;1277;1015913;-66
2023/09/16 11:03:25;;;;;;;15.90;5.20;;;;;;;32.44;34.57;99421.85;67820;1277;1016460;-65
2023/09/16 11:06:27;;;;;;;15.00;5.20;;;;;;;32.57;34.47;99417.20;67850;1277;1015921;-67
2023/09/16 11:09:30;;;;;;;20.30;5.40;;;;;;;32.59;34.20;99409.45;67862;1277;1016369;-66
2023/09/16 11:12:32;;;;;;;15.10;5.10;;;;;;;32.27;33.81;99407.22;67825;1277;1016463;-66
2023/09/16 11:15:35;;;;;;;19.00;5.40;;;;;;;32.13;34.68;99408.86;67836;1277;1016459;-65
2023/09/16 11:18:42;;;;;;;15.40;5.10;;;;;;;32.29;34.48;99401.40;67807;1277;1016452;-66
2023/09/16 11:21:44;;;;;;;18.90;5.30;;;;;;;32.24;34.17;99393.67;67873;1277;1016180;-66
2023/09/16 11:24:46;;;;;;;19.60;5.40;;;;;;;32.38;34.41;99387.84;67859;1277;1016336;-66
2023/09/16 11:27:49;;;;;;;16.20;5.50;;;;;;;32.58;33.91;99382.54;67809;1277;1016900;-66
2023/09/16 11:30:51;;;;;;;19.10;5.20;;;;;;;32.69;34.15;99377.98;67797;1277;1016214;-65
2023/09/16 11:33:53;;;;;;;19.00;5.50;;;;;;;32.73;33.77;99371.17;67846;1277;1016929;-64
2023/09/16 11:36:57;;;;;;;15.60;4.90;;;;;;;32.90;33.44;99374.88;67857;1277;1016502;-66
2023/09/16 11:40:00;;;;;;;18.60;5.50;;;;;;;32.85;33.56;99373.15;67792;1277;1016314;-65
2023/09/16 11:43:04;;;;;;;17.70;5.00;;;;;;;32.79;33.84;99368.33;67836;1277;1018508;-66
2023/09/16 11:46:07;;;;;;;17.80;5.10;;;;;;;32.73;33.59;99371.61;67844;1277;1016448;-66
2023/09/16 11:49:09;;;;;;;15.40;4.80;;;;;;;32.71;33.61;99367.70;67785;1276;1015945;-66
2023/09/16 11:52:12;;;;;;;17.80;5.10;;;;;;;32.74;33.45;99364.76;67814;1277;1016211;-67
2023/09/16 11:55:14;;;;;;;14.50;5.00;;;;;;;32.92;33.81;99360.45;67821;1277;1015932;-66
2023/09/16 11:58:17;;;;;;;20.20;5.40;;;;;;;32.99;33.36;99353.46;67875;1277;1016500;-66
2023/09/16 12:01:19;;;;;;;14.00;4.70;;;;;;;32.93;33.44;99349.77;67854;1277;1016892;-66
2023/09/16 12:04:22;;;;;;;17.50;5.20;;;;;;;32.73;33.13;99340.44;67808;1277;1016358;-66
2023/09/16 12:07:25;;;;;;;16.40;4.90;;;;;;;32.86;33.42;99338.55;67769;1277;1015998;-66
2023/09/16 12:10:27;;;;;;;20.50;5.20;;;;;;;32.99;33.18;99338.09;67861;1277;1016085;-66
2023/09/16 12:13:29;;;;;;;14.60;4.80;;;;;;;32.96;33.09;99335.29;67842;1277;1015793;-65
2023/09/16 12:16:32;;;;;;;13.30;4.70;;;;;;;32.84;33.31;99334.22;67845;1277;1016954;-65
2023/09/16 12:19:34;;;;;;;22.10;5.90;;;;;;;32.88;33.26;99334.52;67809;1277;1016694;-66
2023/09/16 12:22:36;;;;;;;15.20;4.60;;;;;;;32.86;33.72;99337.30;67791;1277;1016392;-66
2023/09/16 12:25:39;;;;;;;17.50;4.80;;;;;;;32.97;33.52;99330.21;67863;1277;1016444;-65
2023/09/16 12:28:41;;;;;;;16.10;4.80;;;;;;;32.86;33.10;99326.92;67862;1277;1016358;-66
2023/09/16 12:31:44;;;;;;;16.60;5.30;;;;;;;32.87;33.77;99332.31;67835;1277;1016431;-66
2023/09/16 12:34:46;;;;;;;15.00;4.60;;;;;;;33.11;33.67;99324.48;67831;1277;1016488;-66
2023/09/16 12:37:49;;;;;;;16.40;5.00;;;;;;;33.26;33.78;99323.00;67872;1277;1016384;-66
2023/09/16 12:40:51;;;;;;;17.90;5.10;;;;;;;33.46;33.56;99321.36;67877;1277;1016481;-66
2023/09/16 12:43:55;;;;;;;14.90;4.90;;;;;;;33.58;33.41;99319.62;67853;1277;1016297;-67
2023/09/16 12:46:58;;;;;;;14.30;4.60;;;;;;;33.82;33.09;99315.02;67857;1277;1016770;-65
2023/09/16 12:50:01;;;;;;;27.30;5.50;;;;;;;34.02;32.84;99317.67;67807;1277;1016310;-66
2023/09/16 12:53:03;;;;;;;17.40;5.20;;;;;;;34.13;32.98;99315.10;67854;1277;1016430;-66
2023/09/16 12:56:05;;;;;;;17.50;5.70;;;;;;;34.23;32.88;99310.45;67848;1277;1016813;-66
2023/09/16 12:59:08;;;;;;;14.70;4.50;;;;;;;34.34;32.98;99305.50;67826;1277;1016436;-66
2023/09/16 13:02:10;;;;;;;15.20;4.70;;;;;;;34.34;32.70;99301.08;67828;1277;1016394;-65
2023/09/16 13:05:12;;;;;;;14.50;4.50;;;;;;;34.31;33.07;99299.75;67807;1271;1016221;-65
2023/09/16 13:08:15;;;;;;;15.50;4.70;;;;;;;34.34;32.89;99303.64;67850;1277;1016250;-65
2023/09/16 13:11:17;;;;;;;14.20;5.00;;;;;;;34.16;32.40;99294.10;67867;1277;1016297;-65
2023/09/16 13:14:20;;;;;;;18.50;5.20;;;;;;;33.96;32.72;99292.23;67839;1277;1016952;-66
2023/09/16 13:17:23;;;;;;;14.50;4.50;;;;;;;33.89;32.89;99294.41;67816;1277;1016807;-65
2023/09/16 13:20:25;;;;;;;12.10;4.10;;;;;;;34.10;32.85;99295.17;67836;1277;1016485;-65
2023/09/16 13:23:28;;;;;;;10.80;3.90;;;;;;;34.21;32.75;99293.02;67854;1277;1016676;-65
2023/09/16 13:26:31;;;;;;;13.90;4.60;;;;;;;34.21;32.92;99295.52;67800;1277;1016095;-66
2023/09/16 13:29:33;;;;;;;15.80;4.60;;;;;;;34.39;32.95;99300.65;67849;1277;1016183;-65
2023/09/16 13:32:36;;;;;;;13.50;4.70;;;;;;;34.54;32.78;99304.45;67885;1277;1016288;-66
2023/09/16 13:35:38;;;;;;;27.20;6.10;;;;;;;34.66;32.49;99308.52;67837;1277;1016163;-66
2023/09/16 13:38:40;;;;;;;15.90;4.90;;;;;;;34.61;32.58;99304.56;67815;1277;1016866;-66
2023/09/16 13:41:43;;;;;;;22.50;5.50;;;;;;;34.31;32.42;99303.17;67818;1277;1019588;-66
2023/09/16 13:44:46;;;;;;;19.30;4.60;;;;;;;34.19;33.00;99305.72;67874;1256;1016453;-66
2023/09/16 13:47:48;;;;;;;20.00;5.40;;;;;;;34.28;32.95;99300.77;67878;1277;1019893;-66
2023/09/16 13:50:50;;;;;;;18.20;6.30;;;;;;;34.39;33.15;99300.20;67819;1277;1016126;-65
2023/09/16 13:53:53;;;;;;;19.20;7.20;;;;;;;34.37;32.89;99305.11;67821;1277;1015766;-66
2023/09/16 13:56:55;;;;;;;15.30;5.30;;;;;;;34.38;32.48;99299.92;67857;1277;1016491;-66